Irma, WI (54442)

11:07 PM CDT on April 18, 2015 (GMT -0500)
Tomahawk Weather | | Change Station
CLOSE
Current Station
Personal Weather Station
Location: Tomahawk, WI
Elevation: 1505 ft
Nearby Weather Stations

Elev 1505 ft 45.39 °N, 89.76 °W | Updated 11 minutes ago

Partly Cloudy
Partly Cloudy
48.9 °F
Feels Like 46 °F
N
6.0
Wind Variable Wind from East
Gusts 15.0 mph

Today
High -- | Low -- °F
--% Chance of Precip.
Yesterday
High -- | Low -- °F
Precip. -- in
6:08 AM 7:48 PM
New Moon, 0% visible
Pressure 30.06 in
Visibility 10.0 miles
Clouds Clear
Windchill 46 °F
Dew Point 13 °F
Humidity 23%
Rainfall 0.00 in
Snow Depth Not available.
UV 0 out of 12
Pollen 11.20 out of 12
Air Quality Not available.
Flu Activity Local Activity
METAR KTKV 190335Z AUTO 00000KT 10SM CLR 10/M11 A3006 RMK AO2 T00971115

More Conditions Fewer Conditions

Pressure 30.06 in
Visibility 10.0 miles
Clouds Clear
Windchill 46 °F
Dew Point 13 °F
Humidity 23%
Rainfall 0.00 in
Snow Depth Not available.
UV 0 out of 12
Pollen 11.20 out of 12
Air Quality Not available.
Flu Activity Local Activity
METAR KTKV 190335Z AUTO 00000KT 10SM CLR 10/M11 A3006 RMK AO2 T00971115

More Conditions Fewer Conditions

10-Day Weather Forecast

Almanac

Astronomy

Apr. 18, 2015 Rise Set
Actual Time
Civil Twilight
Nautical Twilight
Astronomical Twilight
Moon
Length of Visible Light
Length of Day
Tomorrow will be .
, % of the Moon is Illuminated

Today's Extremes

State Highs State Lows

Community

WunderPhotos

Upload Photos

1,814,719 photos uploaded!

WunderBlogs® & News

Nearby

Air Quality

  Air Quality AQ Index Pollutant
Not available.

Snow Depth

Station Depth Elevation

Earthquake Activity

City Distance Mag. Time & Date
Minimum magnitude displayed is 2.5.

Coastal Water Temperatures

Place Temperature

Stations

Nearby Weather Stations

Station Location Temp. Windchill Dew Point Humidity Wind Precip. Elev Updated Type